Time;durP1;ratioP1;P1;durP2;ratioP2;P2;SDS_P1;SDS_P2;PMS_P1;PMS_P2;Temp;Humidity;BMP_temperature;BMP_pressure;BME280_temperature;BME280_humidity;BME280_pressure;Samples;Min_cycle;Max_cycle;Signal;HPM_P1;HPM_P2
2021/01/25 00:00:32;;;;;;;6.43;5.43;;;5.80;53.10;;;;;;6185927;23;20463;-77
2021/01/25 00:02:59;;;;;;;4.87;4.10;;;5.80;53.10;;;;;;6185354;23;21275;-77
2021/01/25 00:05:25;;;;;;;4.80;4.07;;;5.80;52.90;;;;;;6184597;23;20406;-77
2021/01/25 00:07:52;;;;;;;5.37;4.00;;;5.80;52.80;;;;;;6185227;23;20445;-77
2021/01/25 00:10:18;;;;;;;6.90;5.50;;;5.80;52.90;;;;;;6185318;23;20406;-77
2021/01/25 00:12:45;;;;;;;8.67;5.00;;;5.80;52.70;;;;;;6184906;23;20438;-77
2021/01/25 00:15:12;;;;;;;5.60;4.33;;;5.90;52.70;;;;;;6185034;23;20415;-77
2021/01/25 00:17:40;;;;;;;5.80;5.13;;;5.90;52.50;;;;;;6184960;23;20453;-77
2021/01/25 00:20:07;;;;;;;6.57;5.97;;;6.00;52.60;;;;;;6184875;23;20908;-78
2021/01/25 00:22:34;;;;;;;6.83;6.17;;;6.00;52.40;;;;;;6183575;23;20776;-77
2021/01/25 00:25:00;;;;;;;6.07;5.40;;;6.10;52.60;;;;;;6185137;23;20409;-77
2021/01/25 00:27:27;;;;;;;5.30;4.80;;;6.10;52.30;;;;;;6184948;23;20406;-77
2021/01/25 00:29:53;;;;;;;5.23;4.83;;;6.10;52.40;;;;;;6185232;23;20409;-77
2021/01/25 00:32:20;;;;;;;9.20;5.27;;;6.00;52.30;;;;;;6185303;23;20445;-77
2021/01/25 00:34:47;;;;;;;14.70;4.60;;;5.90;52.40;;;;;;6184704;23;20780;-76
2021/01/25 00:37:14;;;;;;;4.60;4.20;;;5.80;52.40;;;;;;6184762;23;20465;-76
2021/01/25 00:39:40;;;;;;;5.33;3.90;;;5.70;52.60;;;;;;6185359;23;20476;-76
2021/01/25 00:42:07;;;;;;;4.20;3.80;;;5.70;52.70;;;;;;6184460;23;20908;-76
2021/01/25 00:44:33;;;;;;;5.37;3.40;;;5.60;52.10;;;;;;6184981;23;20414;-76
2021/01/25 00:47:00;;;;;;;5.33;3.70;;;5.60;52.30;;;;;;6184471;23;20444;-77
2021/01/25 00:49:26;;;;;;;5.40;4.27;;;5.50;52.60;;;;;;6182812;23;20946;-76
2021/01/25 00:51:54;;;;;;;3.43;3.10;;;5.50;52.80;;;;;;6185238;23;20756;-76
2021/01/25 00:54:20;;;;;;;5.97;5.40;;;5.60;52.80;;;;;;6184341;23;20907;-76
2021/01/25 00:56:48;;;;;;;4.13;3.77;;;5.60;52.70;;;;;;6185587;23;20736;-78
2021/01/25 00:59:15;;;;;;;4.67;4.20;;;5.60;52.60;;;;;;6184388;23;20452;-78
2021/01/25 01:01:42;;;;;;;3.60;3.30;;;5.70;52.70;;;;;;6188271;23;20410;-77
2021/01/25 01:04:08;;;;;;;6.27;4.10;;;5.80;52.70;;;;;;6186132;23;20439;-77
2021/01/25 01:06:35;;;;;;;5.27;4.13;;;5.80;52.60;;;;;;6184643;23;20418;-77
2021/01/25 01:09:03;;;;;;;4.60;4.00;;;5.80;52.50;;;;;;6184972;23;20413;-76
2021/01/25 01:11:30;;;;;;;4.80;3.87;;;5.80;52.10;;;;;;6184447;23;20410;-77
2021/01/25 01:13:56;;;;;;;3.80;3.50;;;5.90;52.00;;;;;;6182916;23;20449;-76
2021/01/25 01:16:23;;;;;;;4.97;4.30;;;5.90;51.90;;;;;;6184857;23;20417;-77
2021/01/25 01:18:49;;;;;;;3.87;3.53;;;5.90;52.00;;;;;;6184487;23;20459;-78
2021/01/25 01:21:16;;;;;;;4.90;3.80;;;5.90;52.10;;;;;;6185360;23;20410;-76
2021/01/25 01:23:42;;;;;;;4.53;3.90;;;5.90;51.70;;;;;;6184585;23;20418;-76
2021/01/25 01:26:10;;;;;;;5.33;4.00;;;5.90;51.80;;;;;;6184627;23;20409;-76
2021/01/25 01:28:36;;;;;;;4.40;4.00;;;5.80;51.50;;;;;;6185160;23;20409;-76
2021/01/25 01:31:03;;;;;;;6.37;4.73;;;5.70;51.70;;;;;;6184489;23;20424;-76
2021/01/25 01:33:29;;;;;;;5.37;4.40;;;5.70;51.90;;;;;;6185036;23;20420;-76
2021/01/25 01:35:56;;;;;;;4.20;3.80;;;5.70;52.10;;;;;;6184062;23;20409;-76
2021/01/25 01:38:22;;;;;;;5.43;4.70;;;5.60;52.30;;;;;;6184907;23;20464;-76
2021/01/25 01:40:49;;;;;;;3.77;3.50;;;5.60;52.50;;;;;;6182343;23;20421;-76
2021/01/25 01:43:16;;;;;;;3.87;3.57;;;5.60;52.70;;;;;;6184613;23;20417;-76
2021/01/25 01:45:43;;;;;;;5.27;4.73;;;5.50;52.70;;;;;;6184936;23;20888;-76
2021/01/25 01:48:10;;;;;;;6.47;3.93;;;5.50;52.70;;;;;;6184491;23;20424;-76
2021/01/25 01:50:37;;;;;;;4.47;4.07;;;5.40;52.90;;;;;;6184481;23;20409;-76
2021/01/25 01:53:03;;;;;;;3.97;3.63;;;5.40;53.10;;;;;;6184608;23;20926;-75
2021/01/25 01:55:30;;;;;;;3.97;3.67;;;5.50;53.20;;;;;;6184364;23;20432;-75
2021/01/25 01:57:57;;;;;;;6.57;4.70;;;5.50;53.20;;;;;;6184575;23;20444;-75
2021/01/25 02:00:24;;;;;;;4.17;3.80;;;5.50;53.10;;;;;;6184220;23;20414;-75
2021/01/25 02:02:51;;;;;;;4.87;4.47;;;5.50;53.20;;;;;;6184672;23;20410;-75
2021/01/25 02:05:18;;;;;;;3.83;3.53;;;5.50;53.10;;;;;;6184697;23;20923;-75
2021/01/25 02:07:48;;;;;;;4.30;3.70;;;5.40;53.10;;;;;;6182401;23;20471;-75
2021/01/25 02:10:16;;;;;;;4.37;3.97;;;5.40;53.10;;;;;;6184347;23;20453;-75
2021/01/25 02:12:43;;;;;;;3.73;3.43;;;5.40;53.20;;;;;;6184607;23;20976;-75
2021/01/25 02:15:12;;;;;;;4.47;4.03;;;5.40;53.40;;;;;;6184809;23;20498;-75
2021/01/25 02:17:39;;;;;;;4.33;3.93;;;5.50;53.50;;;;;;6184908;23;20421;-75
2021/01/25 02:20:08;;;;;;;5.50;5.00;;;5.60;53.60;;;;;;6184491;23;20435;-76
2021/01/25 02:23:10;;;;;;;4.97;4.47;;;5.70;53.40;;;;;;6184713;23;20919;-76
2021/01/25 02:25:45;;;;;;;6.03;4.10;;;5.70;53.40;;;;;;6184047;23;20410;-75
2021/01/25 02:28:13;;;;;;;5.23;4.60;;;5.70;53.20;;;;;;6183868;23;21009;-76
2021/01/25 02:30:40;;;;;;;5.97;5.37;;;5.80;53.40;;;;;;6184423;23;20500;-76
2021/01/25 02:33:08;;;;;;;5.33;4.67;;;5.80;53.50;;;;;;6184076;23;20418;-76
2021/01/25 02:35:36;;;;;;;5.80;4.37;;;5.80;53.60;;;;;;6183111;23;20420;-76
2021/01/25 02:38:07;;;;;;;6.07;5.10;;;5.90;53.50;;;;;;6183512;23;20452;-76
2021/01/25 02:40:34;;;;;;;9.50;4.60;;;5.90;53.60;;;;;;6184897;23;20792;-76
2021/01/25 02:43:02;;;;;;;7.37;5.03;;;5.90;53.40;;;;;;6184390;23;20740;-76
2021/01/25 02:45:29;;;;;;;5.00;4.60;;;5.90;53.50;;;;;;6184051;23;20492;-76
2021/01/25 02:47:57;;;;;;;4.73;4.23;;;5.90;53.60;;;;;;6184827;23;20416;-75
2021/01/25 02:50:24;;;;;;;6.03;5.10;;;5.90;53.40;;;;;;6184171;23;20456;-75
2021/01/25 02:52:50;;;;;;;7.13;4.70;;;5.90;53.30;;;;;;6184661;23;20433;-75
2021/01/25 02:55:17;;;;;;;5.70;5.13;;;6.00;53.50;;;;;;6185907;23;20490;-75
2021/01/25 02:57:45;;;;;;;7.10;5.20;;;6.00;53.30;;;;;;6185663;23;20455;-75
2021/01/25 03:00:13;;;;;;;6.90;5.53;;;6.00;53.40;;;;;;6184238;23;20462;-76
2021/01/25 03:02:41;;;;;;;5.20;4.70;;;6.00;53.60;;;;;;6186229;23;20445;-76
2021/01/25 03:05:08;;;;;;;7.13;4.73;;;5.90;53.50;;;;;;6185361;23;20912;-76
2021/01/25 03:07:35;;;;;;;5.30;4.80;;;5.90;53.50;;;;;;6185816;23;20755;-76
2021/01/25 03:10:03;;;;;;;5.90;5.30;;;5.80;53.70;;;;;;6185400;23;20982;-76
2021/01/25 03:12:30;;;;;;;4.53;4.13;;;5.70;53.90;;;;;;6186425;23;20837;-76
2021/01/25 03:14:57;;;;;;;5.37;4.93;;;5.70;54.40;;;;;;6185618;23;20407;-76
2021/01/25 03:17:23;;;;;;;6.57;4.30;;;5.70;54.80;;;;;;6186291;23;20782;-76
2021/01/25 03:19:50;;;;;;;7.30;4.47;;;5.70;55.30;;;;;;6185957;23;20969;-76
2021/01/25 03:22:17;;;;;;;7.07;5.30;;;5.70;55.90;;;;;;6185408;23;20409;-76
2021/01/25 03:24:43;;;;;;;5.80;4.70;;;5.70;56.70;;;;;;6185864;23;20458;-77
2021/01/25 03:27:10;;;;;;;7.00;5.60;;;5.70;57.30;;;;;;6183427;23;20408;-77
2021/01/25 03:29:36;;;;;;;7.20;5.20;;;5.70;58.20;;;;;;6185962;23;20410;-76
2021/01/25 03:32:03;;;;;;;8.20;5.67;;;5.60;58.60;;;;;;6186237;23;20434;-77
2021/01/25 03:34:30;;;;;;;6.33;5.70;;;5.60;59.30;;;;;;6185467;23;20414;-77
2021/01/25 03:36:57;;;;;;;6.03;5.37;;;5.60;59.40;;;;;;6186099;23;20414;-77
2021/01/25 03:39:27;;;;;;;8.03;6.03;;;5.50;60.10;;;;;;6184900;23;20457;-77
2021/01/25 03:41:57;;;;;;;6.93;6.33;;;5.60;61.00;;;;;;6185708;23;20435;-78
2021/01/25 03:44:23;;;;;;;5.90;5.40;;;5.50;61.40;;;;;;6185245;23;20994;-77
2021/01/25 03:46:50;;;;;;;7.73;5.97;;;5.50;61.50;;;;;;6185220;23;20413;-77
2021/01/25 03:49:16;;;;;;;7.50;5.73;;;5.60;61.60;;;;;;6186061;23;20410;-77
2021/01/25 03:51:43;;;;;;;6.53;5.60;;;5.50;62.20;;;;;;6185471;23;20935;-77
2021/01/25 03:54:12;;;;;;;6.63;5.90;;;5.50;61.90;;;;;;6183857;23;20420;-77
2021/01/25 03:56:38;;;;;;;6.47;5.87;;;5.50;62.40;;;;;;6185095;23;20414;-77
2021/01/25 03:59:05;;;;;;;6.03;5.40;;;5.50;62.60;;;;;;6185433;23;20459;-76
2021/01/25 04:01:32;;;;;;;9.47;5.03;;;5.50;62.70;;;;;;6185438;23;20422;-77
2021/01/25 04:03:59;;;;;;;5.60;4.90;;;5.60;63.50;;;;;;6185287;23;20420;-76
2021/01/25 04:06:25;;;;;;;7.13;4.87;;;5.60;63.40;;;;;;6185690;23;20409;-76
2021/01/25 04:08:52;;;;;;;7.60;4.70;;;5.60;63.60;;;;;;6185964;23;20776;-76
2021/01/25 04:11:20;;;;;;;5.20;4.70;;;5.70;63.60;;;;;;6185019;23;20927;-76
2021/01/25 04:13:46;;;;;;;5.97;5.10;;;5.70;63.60;;;;;;6185134;23;20440;-76
2021/01/25 04:16:13;;;;;;;8.30;5.87;;;5.70;63.60;;;;;;6184910;23;20412;-75
2021/01/25 04:18:39;;;;;;;6.00;5.50;;;5.70;63.50;;;;;;6185389;23;20489;-76
2021/01/25 04:21:06;;;;;;;6.60;5.60;;;5.70;64.00;;;;;;6183266;23;20904;-75
2021/01/25 04:23:32;;;;;;;5.63;5.10;;;5.70;64.10;;;;;;6185599;23;20856;-77
2021/01/25 04:25:59;;;;;;;5.37;4.87;;;5.70;64.10;;;;;;6184678;23;20417;-76
2021/01/25 04:28:26;;;;;;;5.80;5.30;;;5.70;64.30;;;;;;6185748;23;20741;-77
2021/01/25 04:30:53;;;;;;;4.90;4.50;;;5.70;64.50;;;;;;6184723;23;20421;-76
2021/01/25 04:33:19;;;;;;;4.57;4.20;;;5.70;64.70;;;;;;6185381;23;20411;-76
2021/01/25 04:35:46;;;;;;;6.47;5.87;;;5.70;64.70;;;;;;6184671;23;20772;-76
2021/01/25 04:38:12;;;;;;;7.00;4.90;;;5.60;64.70;;;;;;6184927;23;20460;-76
2021/01/25 04:40:39;;;;;;;4.37;4.07;;;5.60;64.80;;;;;;6185027;23;20739;-76
2021/01/25 04:43:06;;;;;;;4.87;4.43;;;5.60;64.90;;;;;;6185728;23;20438;-77
2021/01/25 04:45:33;;;;;;;5.00;4.50;;;5.60;65.00;;;;;;6183912;23;20416;-77
2021/01/25 04:48:01;;;;;;;4.50;4.20;;;5.60;65.00;;;;;;6184026;23;20417;-77
2021/01/25 04:50:28;;;;;;;4.67;4.27;;;5.60;65.00;;;;;;6185219;23;20414;-77
2021/01/25 04:52:55;;;;;;;4.57;4.17;;;5.60;65.00;;;;;;6185573;23;20782;-77
2021/01/25 04:55:21;;;;;;;5.50;5.10;;;5.60;65.10;;;;;;6184471;23;20420;-76
2021/01/25 04:57:50;;;;;;;5.03;4.60;;;5.60;65.10;;;;;;6184665;23;20970;-76
2021/01/25 05:00:19;;;;;;;9.13;4.87;;;5.60;65.00;;;;;;6185032;23;20418;-77
2021/01/25 05:02:46;;;;;;;4.37;3.97;;;5.60;65.00;;;;;;6184390;23;20418;-76
2021/01/25 05:05:13;;;;;;;4.47;4.07;;;5.60;65.00;;;;;;6185304;23;20404;-75
2021/01/25 05:07:39;;;;;;;5.13;4.63;;;5.60;65.00;;;;;;6185075;23;20433;-76
2021/01/25 05:10:08;;;;;;;4.00;3.60;;;5.60;65.00;;;;;;6184594;23;20444;-76
2021/01/25 05:12:45;;;;;;;5.67;4.30;;;5.70;65.30;;;;;;6182598;23;20444;-76
2021/01/25 05:15:24;;;;;;;5.00;4.10;;;5.70;65.20;;;;;;6184247;23;20931;-76
2021/01/25 05:17:51;;;;;;;4.73;4.00;;;5.70;64.90;;;;;;6184619;23;20423;-76
2021/01/25 05:20:23;;;;;;;5.67;5.17;;;5.60;65.00;;;;;;6184817;23;20416;-76
2021/01/25 05:22:50;;;;;;;5.23;4.77;;;5.70;65.40;;;;;;6184381;23;20485;-76
2021/01/25 05:25:27;;;;;;;4.73;4.33;;;5.70;65.20;;;;;;6185202;23;20437;-76
2021/01/25 05:27:54;;;;;;;5.83;5.20;;;5.70;65.20;;;;;;6184469;23;20494;-75
2021/01/25 05:30:22;;;;;;;7.20;4.53;;;5.70;65.20;;;;;;6184964;23;20421;-75
2021/01/25 05:32:50;;;;;;;5.53;4.57;;;5.60;65.10;;;;;;6183989;23;21023;-75
2021/01/25 05:35:20;;;;;;;5.10;4.70;;;5.60;65.90;;;;;;6184727;23;20899;-75
2021/01/25 05:37:53;;;;;;;4.83;4.20;;;5.60;65.30;;;;;;6184824;23;20414;-76
2021/01/25 05:40:24;;;;;;;5.50;5.00;;;5.60;65.30;;;;;;6181940;23;20418;-75
2021/01/25 05:42:51;;;;;;;10.17;5.30;;;5.60;65.40;;;;;;6185161;23;20443;-76
2021/01/25 05:45:19;;;;;;;4.67;4.27;;;5.60;65.40;;;;;;6184889;23;20424;-75
2021/01/25 05:47:49;;;;;;;6.27;4.90;;;5.60;65.50;;;;;;6184690;23;20416;-75
2021/01/25 05:50:31;;;;;;;7.53;5.50;;;5.60;65.50;;;;;;6183901;23;20413;-74
2021/01/25 05:52:59;;;;;;;4.40;4.00;;;5.60;65.70;;;;;;6184983;23;20410;-76
2021/01/25 05:55:26;;;;;;;6.17;4.63;;;5.70;65.70;;;;;;6184423;23;20410;-76
2021/01/25 05:57:53;;;;;;;5.67;5.00;;;5.60;65.60;;;;;;6184593;23;20456;-75
2021/01/25 06:00:21;;;;;;;4.80;4.40;;;5.60;65.50;;;;;;6184323;23;20414;-75
2021/01/25 06:02:49;;;;;;;5.43;4.93;;;5.60;65.40;;;;;;6184808;23;20742;-74
2021/01/25 06:05:24;;;;;;;4.93;4.53;;;5.60;65.40;;;;;;6182237;23;20414;-74
2021/01/25 06:07:52;;;;;;;4.83;4.43;;;5.60;65.50;;;;;;6184736;23;20428;-74
2021/01/25 06:10:25;;;;;;;5.60;4.97;;;5.50;65.50;;;;;;6183700;23;20912;-75
2021/01/25 06:12:58;;;;;;;6.00;4.40;;;5.50;65.70;;;;;;6183880;23;20462;-74
2021/01/25 06:15:29;;;;;;;5.03;4.27;;;5.50;65.80;;;;;;6183981;23;20449;-74
2021/01/25 06:17:58;;;;;;;5.40;4.40;;;5.40;65.70;;;;;;6183486;23;20918;-74
2021/01/25 06:20:27;;;;;;;6.13;4.67;;;5.40;65.80;;;;;;6183642;23;20456;-74
2021/01/25 06:22:56;;;;;;;5.83;5.13;;;5.40;65.80;;;;;;6183869;23;20914;-74
2021/01/25 06:25:24;;;;;;;5.10;4.47;;;5.40;65.80;;;;;;6183847;23;20432;-74
2021/01/25 06:27:55;;;;;;;5.50;5.10;;;5.40;65.90;;;;;;6184335;23;20416;-75
2021/01/25 06:30:24;;;;;;;4.93;4.53;;;5.30;65.90;;;;;;6185905;23;20416;-74
2021/01/25 06:32:51;;;;;;;5.03;4.33;;;5.30;65.90;;;;;;6184119;23;20421;-74
2021/01/25 06:35:18;;;;;;;6.23;4.87;;;5.30;65.90;;;;;;6186010;23;20759;-74
2021/01/25 06:37:56;;;;;;;5.23;4.73;;;5.30;65.90;;;;;;6186165;23;20418;-74
2021/01/25 06:40:25;;;;;;;4.97;4.57;;;5.30;65.90;;;;;;6186059;23;20416;-75
2021/01/25 06:42:53;;;;;;;6.90;4.73;;;5.30;65.90;;;;;;6185701;23;20467;-74
2021/01/25 06:45:23;;;;;;;5.33;4.93;;;5.30;66.00;;;;;;6185526;23;20412;-74
2021/01/25 06:47:50;;;;;;;5.43;4.23;;;5.30;66.10;;;;;;6185711;23;20420;-74
2021/01/25 06:50:19;;;;;;;5.20;4.57;;;5.30;66.00;;;;;;6186082;23;20978;-74
2021/01/25 06:52:50;;;;;;;5.57;4.63;;;5.30;66.10;;;;;;6185749;23;20405;-75
2021/01/25 06:55:17;;;;;;;5.53;4.80;;;5.40;66.30;;;;;;6179970;23;20416;-74
2021/01/25 06:57:47;;;;;;;4.90;4.47;;;5.40;66.30;;;;;;6185141;23;20424;-73
2021/01/25 07:00:18;;;;;;;4.93;4.43;;;5.40;66.10;;;;;;6182194;23;20488;-73
2021/01/25 07:02:52;;;;;;;12.63;5.20;;;5.50;66.20;;;;;;6185813;23;20462;-74
2021/01/25 07:05:22;;;;;;;5.60;5.10;;;5.50;66.30;;;;;;6185078;23;20417;-74
2021/01/25 07:07:49;;;;;;;5.97;5.10;;;5.50;66.30;;;;;;6184266;23;20448;-73
2021/01/25 07:10:19;;;;;;;5.23;4.73;;;5.60;66.40;;;;;;6183527;23;20409;-74
2021/01/25 07:12:46;;;;;;;5.33;4.83;;;5.60;66.20;;;;;;6183958;23;20425;-73
2021/01/25 07:15:14;;;;;;;5.37;4.97;;;5.60;66.10;;;;;;6185085;23;20410;-73
2021/01/25 07:17:41;;;;;;;5.40;4.90;;;5.60;66.10;;;;;;6185425;23;20414;-74
2021/01/25 07:20:09;;;;;;;5.60;5.00;;;5.60;66.00;;;;;;6183723;23;20507;-74
2021/01/25 07:22:37;;;;;;;5.10;4.70;;;5.60;66.00;;;;;;6184269;23;20939;-74
2021/01/25 07:25:05;;;;;;;4.57;3.97;;;5.60;65.90;;;;;;6185449;23;20412;-72
2021/01/25 07:27:36;;;;;;;5.03;4.53;;;5.60;65.80;;;;;;6182516;23;20472;-72
2021/01/25 07:30:04;;;;;;;5.80;5.13;;;5.60;65.90;;;;;;6184242;23;20404;-73
2021/01/25 07:32:31;;;;;;;6.67;4.67;;;5.60;65.90;;;;;;6184128;23;20470;-72
2021/01/25 07:34:57;;;;;;;7.63;4.83;;;5.60;65.80;;;;;;6185259;23;20813;-72
2021/01/25 07:37:24;;;;;;;8.07;6.07;;;5.60;65.90;;;;;;6185463;23;20417;-72
2021/01/25 07:39:50;;;;;;;6.50;5.10;;;5.60;65.90;;;;;;6184229;23;20463;-73
2021/01/25 07:42:17;;;;;;;5.20;4.70;;;5.70;65.90;;;;;;6185476;23;20516;-72
2021/01/25 07:44:45;;;;;;;12.97;5.63;;;5.70;65.80;;;;;;6183382;23;20413;-71
2021/01/25 07:47:11;;;;;;;5.00;4.50;;;5.70;65.80;;;;;;6180891;23;21172;-71
2021/01/25 07:49:38;;;;;;;10.30;4.90;;;5.70;65.60;;;;;;6182403;23;20547;-73
2021/01/25 07:52:15;;;;;;;8.67;4.80;;;5.70;65.70;;;;;;6184521;23;20461;-71
2021/01/25 07:54:42;;;;;;;5.90;4.70;;;5.80;65.40;;;;;;6180701;23;20915;-71
2021/01/25 07:57:21;;;;;;;6.27;5.77;;;5.80;65.70;;;;;;6184072;23;20422;-73
2021/01/25 07:59:49;;;;;;;7.53;6.50;;;5.90;65.90;;;;;;6179261;23;20468;-73
2021/01/25 08:02:16;;;;;;;6.17;5.57;;;5.90;65.90;;;;;;6179871;23;20417;-73
2021/01/25 08:04:44;;;;;;;9.80;6.90;;;5.90;65.90;;;;;;6182641;23;20401;-73
2021/01/25 08:07:14;;;;;;;11.80;6.37;;;6.00;66.40;;;;;;6182804;23;20434;-72
2021/01/25 08:09:43;;;;;;;6.30;5.53;;;6.00;66.60;;;;;;6184900;23;20922;-73
2021/01/25 08:12:10;;;;;;;9.27;6.20;;;6.00;66.50;;;;;;6181503;23;20409;-73
2021/01/25 08:14:39;;;;;;;10.40;6.03;;;6.00;66.50;;;;;;6184753;23;20441;-73
2021/01/25 08:17:08;;;;;;;10.77;6.47;;;6.00;66.40;;;;;;6184452;23;20421;-73
2021/01/25 08:19:43;;;;;;;5.97;5.30;;;5.90;66.50;;;;;;6184490;23;20456;-72
2021/01/25 08:22:17;;;;;;;7.23;5.77;;;5.90;67.20;;;;;;6183075;23;20404;-77
2021/01/25 08:24:53;;;;;;;10.23;5.63;;;5.90;67.60;;;;;;6184749;23;20408;-73
2021/01/25 08:27:20;;;;;;;12.00;5.80;;;6.00;67.60;;;;;;6184422;23;20736;-72
2021/01/25 08:30:00;;;;;;;10.13;5.63;;;6.00;67.60;;;;;;6185113;23;20420;-73
2021/01/25 08:32:40;;;;;;;9.73;6.27;;;5.90;68.10;;;;;;6184920;23;20413;-73
2021/01/25 08:35:08;;;;;;;6.40;5.80;;;5.90;68.00;;;;;;6185341;23;20777;-73
2021/01/25 08:37:40;;;;;;;9.77;5.70;;;5.90;68.30;;;;;;6185981;23;20416;-72
2021/01/25 08:40:19;;;;;;;10.87;5.03;;;6.00;68.50;;;;;;6184556;23;20481;-73
2021/01/25 08:42:49;;;;;;;7.20;6.33;;;6.00;68.50;;;;;;6185038;23;20424;-73
2021/01/25 08:45:26;;;;;;;9.40;5.97;;;6.10;68.60;;;;;;6185395;23;20436;-73
2021/01/25 08:48:03;;;;;;;6.33;5.73;;;6.20;68.50;;;;;;6184565;23;20406;-76
2021/01/25 08:50:31;;;;;;;9.47;6.63;;;6.30;68.50;;;;;;6185626;23;20896;-74
2021/01/25 08:53:01;;;;;;;9.60;6.30;;;6.30;68.10;;;;;;6185281;23;20429;-73
2021/01/25 08:55:38;;;;;;;7.73;6.73;;;6.40;67.90;;;;;;6185634;23;20950;-74
2021/01/25 08:58:16;;;;;;;8.97;7.20;;;6.40;67.50;;;;;;6184595;23;20425;-73
2021/01/25 09:00:48;;;;;;;10.67;6.20;;;6.40;67.80;;;;;;6184326;23;20416;-73
2021/01/25 09:03:16;;;;;;;7.27;5.57;;;6.40;68.10;;;;;;6184649;23;20900;-73
2021/01/25 09:05:43;;;;;;;7.43;5.60;;;6.50;68.30;;;;;;6184537;23;20915;-73
2021/01/25 09:08:13;;;;;;;12.87;7.47;;;6.50;68.00;;;;;;6184613;23;20507;-75
2021/01/25 09:10:41;;;;;;;8.77;6.70;;;6.50;67.70;;;;;;6185728;23;20416;-74
2021/01/25 09:13:09;;;;;;;7.77;6.00;;;6.60;67.90;;;;;;6184594;23;20444;-75
2021/01/25 09:15:36;;;;;;;9.50;7.03;;;6.60;68.00;;;;;;6183826;23;20426;-74
2021/01/25 09:18:04;;;;;;;7.90;6.70;;;6.70;68.20;;;;;;6186663;23;20497;-74
2021/01/25 09:20:31;;;;;;;12.70;5.43;;;6.80;68.00;;;;;;6186282;23;20471;-74
2021/01/25 09:22:58;;;;;;;8.20;6.10;;;6.80;67.80;;;;;;6187175;23;20780;-73
2021/01/25 09:25:25;;;;;;;5.77;5.23;;;6.90;67.70;;;;;;6187683;23;20410;-75
2021/01/25 09:27:53;;;;;;;5.73;5.13;;;7.00;67.70;;;;;;6185528;23;20402;-74
2021/01/25 09:30:20;;;;;;;7.47;5.40;;;7.00;67.50;;;;;;6184333;23;20417;-73
2021/01/25 09:32:48;;;;;;;6.17;5.30;;;7.00;67.40;;;;;;6185291;23;20414;-73
2021/01/25 09:35:33;;;;;;;14.90;5.60;;;7.00;67.20;;;;;;6184184;23;20881;-73
2021/01/25 09:38:00;;;;;;;11.67;6.10;;;7.00;67.60;;;;;;6186426;23;20755;-72
2021/01/25 09:40:27;;;;;;;10.87;5.67;;;7.00;66.90;;;;;;6185286;23;20496;-72
2021/01/25 09:42:54;;;;;;;6.97;4.80;;;7.00;66.90;;;;;;6181281;23;20451;-73
2021/01/25 09:45:21;;;;;;;7.13;5.40;;;7.00;66.70;;;;;;6186367;23;20406;-73
2021/01/25 09:47:48;;;;;;;16.53;6.57;;;7.10;66.80;;;;;;6186121;23;20461;-73
2021/01/25 09:50:17;;;;;;;6.87;6.20;;;7.20;66.50;;;;;;6185171;23;20411;-73
2021/01/25 09:52:45;;;;;;;9.93;5.57;;;7.10;66.30;;;;;;6184753;23;20403;-73
2021/01/25 09:55:13;;;;;;;13.33;6.30;;;7.20;66.40;;;;;;6184187;23;20983;-73
2021/01/25 09:57:40;;;;;;;7.17;5.07;;;7.10;67.00;;;;;;6183092;23;20467;-73
2021/01/25 10:00:09;;;;;;;7.70;5.40;;;7.10;66.30;;;;;;6184178;23;20484;-73
2021/01/25 10:02:35;;;;;;;10.23;4.90;;;7.10;66.30;;;;;;6184164;23;20774;-73
2021/01/25 10:05:02;;;;;;;8.30;5.37;;;7.10;66.10;;;;;;6186045;23;20427;-73
2021/01/25 10:07:34;;;;;;;8.50;6.37;;;7.20;66.40;;;;;;6186104;23;20441;-73
2021/01/25 10:10:02;;;;;;;6.17;5.67;;;7.20;66.40;;;;;;6185968;23;20407;-73
2021/01/25 10:12:29;;;;;;;5.70;4.77;;;7.30;66.40;;;;;;6183345;23;20413;-74
2021/01/25 10:14:55;;;;;;;5.27;4.87;;;7.30;66.50;;;;;;6186385;23;20414;-73
2021/01/25 10:17:22;;;;;;;4.63;4.23;;;7.40;66.30;;;;;;6185859;23;20415;-74
2021/01/25 10:19:48;;;;;;;5.20;4.70;;;7.40;66.00;;;;;;6186017;23;20525;-74
2021/01/25 10:22:15;;;;;;;5.63;5.13;;;7.40;65.80;;;;;;6185558;23;20955;-74
2021/01/25 10:24:42;;;;;;;9.10;5.43;;;7.30;65.70;;;;;;6185905;23;20418;-73
2021/01/25 10:27:09;;;;;;;7.37;6.70;;;7.40;65.90;;;;;;6185460;23;20411;-74
2021/01/25 10:29:35;;;;;;;5.87;5.27;;;7.50;66.00;;;;;;6185468;23;20415;-73
2021/01/25 10:32:02;;;;;;;6.37;5.50;;;7.60;66.00;;;;;;6185677;23;20777;-72
2021/01/25 10:34:28;;;;;;;9.53;6.20;;;7.70;65.90;;;;;;6185724;23;20435;-73
2021/01/25 10:36:55;;;;;;;8.00;5.30;;;7.80;65.60;;;;;;6185713;23;20513;-72
2021/01/25 10:39:22;;;;;;;7.20;5.37;;;7.80;65.50;;;;;;6184391;23;20444;-73
2021/01/25 10:41:49;;;;;;;5.87;4.90;;;7.80;65.00;;;;;;6185669;23;20411;-72
2021/01/25 10:44:17;;;;;;;6.37;4.60;;;7.80;64.90;;;;;;6186432;23;20448;-72
2021/01/25 10:46:45;;;;;;;7.70;5.23;;;7.70;64.60;;;;;;6185310;23;20498;-72
2021/01/25 10:49:11;;;;;;;8.47;5.70;;;7.70;64.40;;;;;;6185989;23;20765;-72
2021/01/25 10:51:38;;;;;;;15.63;5.63;;;7.70;64.60;;;;;;6185723;23;20756;-72
2021/01/25 10:54:05;;;;;;;6.93;5.00;;;7.70;64.80;;;;;;6185662;23;20423;-72
2021/01/25 10:56:31;;;;;;;5.03;4.60;;;7.70;64.80;;;;;;6185574;23;20420;-72
2021/01/25 10:58:59;;;;;;;4.03;3.73;;;7.70;65.00;;;;;;6185332;23;20459;-71
2021/01/25 11:01:25;;;;;;;5.00;3.33;;;7.70;65.00;;;;;;6185627;23;20415;-72
2021/01/25 11:03:52;;;;;;;5.60;4.60;;;7.80;65.20;;;;;;6185877;23;20932;-72
2021/01/25 11:06:19;;;;;;;5.10;4.40;;;7.90;65.50;;;;;;6183624;23;20416;-72
2021/01/25 11:08:46;;;;;;;7.30;4.67;;;8.10;65.60;;;;;;6185606;23;20437;-72
2021/01/25 11:11:12;;;;;;;5.50;4.77;;;8.20;65.00;;;;;;6184967;23;20934;-72
2021/01/25 11:13:39;;;;;;;6.60;3.73;;;8.30;64.40;;;;;;6184726;23;20470;-72
2021/01/25 11:16:06;;;;;;;4.93;4.43;;;8.40;64.10;;;;;;6186170;23;20416;-72
2021/01/25 11:18:33;;;;;;;5.30;4.20;;;8.40;63.50;;;;;;6184868;23;20946;-72
2021/01/25 11:20:59;;;;;;;8.60;4.10;;;8.40;63.10;;;;;;6186147;23;20414;-72
2021/01/25 11:23:27;;;;;;;4.07;3.63;;;8.40;63.30;;;;;;6185014;23;20418;-72
2021/01/25 11:25:53;;;;;;;6.70;3.80;;;8.50;63.70;;;;;;6185604;23;20413;-72
2021/01/25 11:28:20;;;;;;;4.73;4.33;;;8.50;63.80;;;;;;6184269;23;20413;-73
2021/01/25 11:30:47;;;;;;;3.83;3.43;;;8.60;63.50;;;;;;6185934;23;20432;-72
2021/01/25 11:33:14;;;;;;;4.70;4.20;;;8.60;63.30;;;;;;6183239;23;20962;-72
2021/01/25 11:35:41;;;;;;;4.00;3.50;;;8.50;62.80;;;;;;6185749;23;20438;-72
2021/01/25 11:38:08;;;;;;;4.30;3.90;;;8.50;63.00;;;;;;6184894;23;20919;-72
2021/01/25 11:40:34;;;;;;;4.20;3.90;;;8.60;63.20;;;;;;6184994;23;20452;-72
2021/01/25 11:43:01;;;;;;;4.37;2.77;;;8.80;62.90;;;;;;6184612;23;20418;-72
2021/01/25 11:45:27;;;;;;;3.33;2.40;;;8.80;61.30;;;;;;6185390;23;20417;-73
2021/01/25 11:47:54;;;;;;;3.73;3.23;;;8.80;61.20;;;;;;6185350;23;20416;-73
2021/01/25 11:50:22;;;;;;;3.23;2.97;;;8.70;61.40;;;;;;6185309;23;20413;-72
2021/01/25 11:52:48;;;;;;;8.27;4.50;;;8.70;61.60;;;;;;6185320;23;20456;-72
2021/01/25 11:55:16;;;;;;;6.50;4.27;;;8.70;61.60;;;;;;6185013;23;20415;-72
2021/01/25 11:57:42;;;;;;;4.27;3.87;;;8.70;61.60;;;;;;6184326;23;20475;-73
2021/01/25 12:00:10;;;;;;;4.17;3.87;;;8.70;62.40;;;;;;6182751;23;20451;-72
2021/01/25 12:02:39;;;;;;;4.30;3.73;;;8.70;61.90;;;;;;6184334;23;20417;-72
2021/01/25 12:05:07;;;;;;;3.43;3.20;;;8.80;62.10;;;;;;6184407;23;20421;-72
2021/01/25 12:07:34;;;;;;;4.10;3.70;;;8.90;62.10;;;;;;6184564;23;20947;-73
2021/01/25 12:10:01;;;;;;;3.57;3.27;;;8.90;62.00;;;;;;6185240;23;20424;-72
2021/01/25 12:12:28;;;;;;;4.13;3.83;;;8.90;62.00;;;;;;6182725;23;20749;-73
2021/01/25 12:14:54;;;;;;;7.93;4.70;;;8.90;62.10;;;;;;6184138;23;20413;-72
2021/01/25 12:17:21;;;;;;;3.27;2.97;;;8.90;62.10;;;;;;6184021;23;20911;-73
2021/01/25 12:19:47;;;;;;;3.67;2.43;;;8.90;62.10;;;;;;6184781;23;20453;-72
2021/01/25 12:22:14;;;;;;;2.77;2.40;;;8.90;62.10;;;;;;6184075;23;20415;-73
2021/01/25 12:24:41;;;;;;;5.50;2.67;;;8.90;62.10;;;;;;6184035;23;20480;-74
2021/01/25 12:27:08;;;;;;;14.10;4.17;;;8.90;62.20;;;;;;6181914;23;20466;-74
2021/01/25 12:29:34;;;;;;;9.07;3.20;;;9.00;62.50;;;;;;6184529;23;20417;-74
2021/01/25 12:32:01;;;;;;;2.60;2.40;;;9.10;62.50;;;;;;6184470;23;20783;-74
2021/01/25 12:34:27;;;;;;;4.33;2.80;;;9.10;62.40;;;;;;6184186;23;20429;-73
2021/01/25 12:36:54;;;;;;;3.63;2.43;;;9.10;62.20;;;;;;6183862;23;20416;-74
2021/01/25 12:39:21;;;;;;;5.10;2.20;;;9.20;62.10;;;;;;6182517;23;20959;-75
2021/01/25 12:41:48;;;;;;;2.30;2.20;;;9.20;61.60;;;;;;6184331;23;20436;-75
2021/01/25 12:44:15;;;;;;;2.50;2.17;;;9.10;61.60;;;;;;6184813;23;20416;-76
2021/01/25 12:46:43;;;;;;;1.70;1.60;;;9.00;61.60;;;;;;6184747;23;20419;-74
2021/01/25 12:49:11;;;;;;;3.10;2.13;;;9.00;61.40;;;;;;6183773;23;20525;-76
2021/01/25 12:51:38;;;;;;;0.77;0.77;;;9.00;61.00;;;;;;6185043;23;20405;-74
2021/01/25 12:54:05;;;;;;;1.10;0.80;;;8.90;60.50;;;;;;6182647;23;20908;-75
2021/01/25 12:56:31;;;;;;;2.37;1.00;;;8.70;59.90;;;;;;6183387;23;20497;-74
2021/01/25 12:58:59;;;;;;;1.90;1.17;;;8.70;60.90;;;;;;6184042;23;20786;-74